createdAt,value
2023-05-24T00:00:22.215Z,14.90
2023-05-24T00:02:50.220Z,15.10
2023-05-24T00:05:19.733Z,14.30
2023-05-24T00:07:47.538Z,14.90
2023-05-24T00:10:15.517Z,15.00
2023-05-24T00:12:43.356Z,14.80
2023-05-24T00:15:11.752Z,14.70
2023-05-24T00:17:41.199Z,14.60
2023-05-24T00:20:12.248Z,15.00
2023-05-24T00:22:41.845Z,14.50
2023-05-24T00:25:10.539Z,14.60
2023-05-24T00:27:38.307Z,14.60
2023-05-24T00:30:07.607Z,14.50
2023-05-24T00:32:35.724Z,14.60
2023-05-24T00:35:03.598Z,14.60
2023-05-24T00:37:31.434Z,14.50
2023-05-24T00:40:00.543Z,14.40
2023-05-24T00:42:28.321Z,14.60
2023-05-24T00:44:56.120Z,14.30
2023-05-24T00:47:24.093Z,14.00
2023-05-24T00:49:52.170Z,14.60
2023-05-24T00:52:20.169Z,14.40
2023-05-24T00:54:47.966Z,14.10
2023-05-24T00:57:18.868Z,14.40
2023-05-24T00:59:46.940Z,14.10
2023-05-24T01:02:14.790Z,14.30
2023-05-24T01:04:42.638Z,14.40
2023-05-24T01:07:19.616Z,14.10
2023-05-24T01:10:04.292Z,14.20
2023-05-24T01:12:45.874Z,14.40
2023-05-24T01:15:31.615Z,13.80
2023-05-24T01:18:06.349Z,14.00
2023-05-24T01:20:38.532Z,14.10
2023-05-24T01:23:19.968Z,14.00
2023-05-24T01:26:00.724Z,13.80
2023-05-24T01:28:30.593Z,14.10
2023-05-24T01:30:59.354Z,13.40
2023-05-24T01:33:27.222Z,13.40
2023-05-24T01:35:55.304Z,13.30
2023-05-24T01:38:23.076Z,13.60
2023-05-24T01:40:57.589Z,13.80
2023-05-24T01:43:38.812Z,13.20
2023-05-24T01:46:14.483Z,13.60
2023-05-24T01:48:55.109Z,13.20
2023-05-24T01:51:27.470Z,13.80
2023-05-24T01:53:59.044Z,13.10
2023-05-24T01:56:28.539Z,13.40
2023-05-24T01:58:59.730Z,13.50
2023-05-24T02:01:27.958Z,13.50
2023-05-24T02:03:56.455Z,13.80
2023-05-24T02:06:24.232Z,13.70
2023-05-24T02:08:52.478Z,13.70
2023-05-24T02:11:20.769Z,13.60
2023-05-24T02:13:48.593Z,13.60
2023-05-24T02:16:18.691Z,13.60
2023-05-24T02:18:46.799Z,13.60
2023-05-24T02:21:14.592Z,13.50
2023-05-24T02:23:42.448Z,13.40
2023-05-24T02:26:11.517Z,13.20
2023-05-24T02:28:39.394Z,13.10
2023-05-24T02:31:08.436Z,13.50
2023-05-24T02:33:37.644Z,13.60
2023-05-24T02:36:05.626Z,13.00
2023-05-24T02:38:33.393Z,13.50
2023-05-24T02:41:01.200Z,13.60
2023-05-24T02:43:28.965Z,13.10
2023-05-24T02:45:56.795Z,13.40
2023-05-24T02:48:24.548Z,13.10
2023-05-24T02:50:53.638Z,13.60
2023-05-24T02:53:21.610Z,13.60
2023-05-24T02:55:49.409Z,13.80
2023-05-24T02:58:17.565Z,13.30
2023-05-24T03:00:45.686Z,13.10
2023-05-24T03:03:13.663Z,12.90
2023-05-24T03:05:41.584Z,13.00
2023-05-24T03:08:10.725Z,13.00
2023-05-24T03:10:38.623Z,12.80
2023-05-24T03:13:06.442Z,13.50
2023-05-24T03:15:34.202Z,13.60
2023-05-24T03:18:02.029Z,12.90
2023-05-24T03:20:29.925Z,13.50
2023-05-24T03:22:57.786Z,12.90
2023-05-24T03:25:27.796Z,13.20
2023-05-24T03:27:55.709Z,12.80
2023-05-24T03:30:23.518Z,13.00
2023-05-24T03:32:51.318Z,13.30
2023-05-24T03:35:19.335Z,13.30
2023-05-24T03:37:47.266Z,13.50
2023-05-24T03:40:15.181Z,12.60
2023-05-24T03:42:44.257Z,13.40
2023-05-24T03:45:12.496Z,12.60
2023-05-24T03:47:40.614Z,13.30
2023-05-24T03:50:09.162Z,13.10
2023-05-24T03:52:36.952Z,13.10
2023-05-24T03:55:05.055Z,13.00
2023-05-24T03:57:32.997Z,12.70
2023-05-24T04:00:02.201Z,13.00
2023-05-24T04:02:30.100Z,12.90
2023-05-24T04:04:57.955Z,13.10
2023-05-24T04:07:25.752Z,12.80
2023-05-24T04:09:53.913Z,12.80
2023-05-24T04:12:21.669Z,13.10
2023-05-24T04:14:49.434Z,12.20
2023-05-24T04:17:18.844Z,12.80
2023-05-24T04:19:47.106Z,13.00
2023-05-24T04:22:14.858Z,13.00
2023-05-24T04:24:42.679Z,12.90
2023-05-24T04:27:10.792Z,12.60
2023-05-24T04:29:40.187Z,12.70
2023-05-24T04:32:10.172Z,12.80
2023-05-24T04:34:42.527Z,12.60
2023-05-24T04:37:10.612Z,12.60
2023-05-24T04:39:38.478Z,13.00
2023-05-24T04:42:07.205Z,12.60
2023-05-24T04:44:34.971Z,12.80
2023-05-24T04:47:03.753Z,13.00
2023-05-24T04:49:31.754Z,13.00
2023-05-24T04:52:00.985Z,12.20
2023-05-24T04:54:28.798Z,12.70
2023-05-24T04:56:56.584Z,12.80
2023-05-24T04:59:24.350Z,12.60
2023-05-24T05:01:52.343Z,12.70
2023-05-24T05:04:20.306Z,12.60
2023-05-24T05:06:48.590Z,12.50
2023-05-24T05:09:18.956Z,12.50
2023-05-24T05:11:48.186Z,12.60
2023-05-24T05:14:16.097Z,13.00
2023-05-24T05:16:44.639Z,13.10
2023-05-24T05:19:12.509Z,13.10
2023-05-24T05:21:40.555Z,13.30
2023-05-24T05:24:08.384Z,13.40
2023-05-24T05:26:37.557Z,13.20
2023-05-24T05:29:05.376Z,13.20
2023-05-24T05:31:33.190Z,13.30
2023-05-24T05:34:00.965Z,13.20
2023-05-24T05:36:28.871Z,13.50
2023-05-24T05:38:56.712Z,13.00
2023-05-24T05:41:24.518Z,13.80
2023-05-24T05:43:53.922Z,13.60
2023-05-24T05:46:22.252Z,13.90
2023-05-24T05:48:50.213Z,14.10
2023-05-24T05:51:18.074Z,14.20
2023-05-24T05:53:45.815Z,13.90
2023-05-24T05:56:13.630Z,14.40
2023-05-24T05:58:41.453Z,13.90
2023-05-24T06:01:10.529Z,14.50
2023-05-24T06:03:38.422Z,15.40
2023-05-24T06:06:06.521Z,16.20
2023-05-24T06:08:35.367Z,16.80
2023-05-24T06:11:03.657Z,17.90
2023-05-24T06:13:32.863Z,18.10
2023-05-24T06:16:01.236Z,18.70
2023-05-24T06:18:32.409Z,18.30
2023-05-24T06:21:00.201Z,17.40
2023-05-24T06:23:27.969Z,16.50
2023-05-24T06:25:56.034Z,16.50
2023-05-24T06:28:23.808Z,16.50
2023-05-24T06:30:51.816Z,16.80
2023-05-24T06:33:19.633Z,17.80
2023-05-24T06:35:48.911Z,20.00
2023-05-24T06:38:17.662Z,21.10
2023-05-24T06:40:45.553Z,22.20
2023-05-24T06:43:13.380Z,22.40
2023-05-24T06:45:41.584Z,22.70
2023-05-24T06:48:09.542Z,22.80
2023-05-24T06:50:40.330Z,22.60
2023-05-24T06:53:11.680Z,22.50
2023-05-24T06:55:39.543Z,22.90
2023-05-24T06:58:07.877Z,22.80
2023-05-24T07:00:35.638Z,23.10
2023-05-24T07:03:03.480Z,23.60
2023-05-24T07:05:31.438Z,24.00
2023-05-24T07:07:59.231Z,23.90
2023-05-24T07:10:28.377Z,24.00
2023-05-24T07:12:56.126Z,24.20
2023-05-24T07:15:23.979Z,24.30
2023-05-24T07:17:52.775Z,24.30
2023-05-24T07:20:20.731Z,23.50
2023-05-24T07:22:48.629Z,22.70
2023-05-24T07:25:16.473Z,23.00
2023-05-24T07:27:45.826Z,23.20
2023-05-24T07:30:27.902Z,22.70
2023-05-24T07:32:59.956Z,23.10
2023-05-24T07:35:28.644Z,24.00
2023-05-24T07:37:56.796Z,24.50
2023-05-24T07:40:24.629Z,24.80
2023-05-24T07:42:53.864Z,25.20
2023-05-24T07:45:21.984Z,24.50
2023-05-24T07:47:49.856Z,24.00
2023-05-24T07:50:18.385Z,22.80
2023-05-24T07:52:46.223Z,22.50
2023-05-24T07:55:14.442Z,23.60
2023-05-24T07:57:42.626Z,24.00
2023-05-24T08:00:14.651Z,24.30
2023-05-24T08:02:46.970Z,25.00
2023-05-24T08:05:17.271Z,25.40
2023-05-24T08:07:47.087Z,25.10
2023-05-24T08:10:17.282Z,25.40
2023-05-24T08:12:47.386Z,26.70
2023-05-24T08:15:18.662Z,27.00
2023-05-24T08:17:48.640Z,26.60
2023-05-24T08:20:18.564Z,26.50
2023-05-24T08:22:49.033Z,26.10
2023-05-24T08:25:21.664Z,26.30
2023-05-24T08:27:52.703Z,27.10
2023-05-24T08:30:24.126Z,27.20
2023-05-24T08:32:54.253Z,27.10
2023-05-24T08:35:24.153Z,26.80
2023-05-24T08:37:53.888Z,26.90
2023-05-24T08:40:24.527Z,26.70
2023-05-24T08:42:55.532Z,26.70
2023-05-24T08:45:31.468Z,26.50
2023-05-24T08:48:02.869Z,26.50
2023-05-24T08:50:33.833Z,26.20
2023-05-24T08:53:04.460Z,26.90
2023-05-24T08:55:34.394Z,27.10
2023-05-24T08:58:02.724Z,27.10
2023-05-24T09:00:32.008Z,27.10
2023-05-24T09:03:01.238Z,27.10
2023-05-24T09:05:31.202Z,27.20
2023-05-24T09:08:01.166Z,26.90
2023-05-24T09:10:49.500Z,26.70
2023-05-24T09:13:18.985Z,26.60
2023-05-24T09:15:48.152Z,26.60
2023-05-24T09:18:16.039Z,26.90
2023-05-24T09:20:44.153Z,26.90
2023-05-24T09:23:14.323Z,27.10
2023-05-24T09:25:44.886Z,27.30
2023-05-24T09:28:14.927Z,26.80
2023-05-24T09:30:44.568Z,26.80
2023-05-24T09:33:14.360Z,26.80
2023-05-24T09:35:44.142Z,26.60
2023-05-24T09:38:19.553Z,26.50
2023-05-24T09:40:47.785Z,26.60
2023-05-24T09:43:15.646Z,26.70
2023-05-24T09:45:46.342Z,26.50
2023-05-24T09:48:17.213Z,26.10
2023-05-24T09:50:47.553Z,25.80
2023-05-24T09:53:19.032Z,26.00
2023-05-24T09:55:46.950Z,26.40
2023-05-24T09:58:16.790Z,26.50
2023-05-24T10:00:44.911Z,26.60
2023-05-24T10:03:14.976Z,26.40
2023-05-24T10:05:46.519Z,26.40
2023-05-24T10:08:15.228Z,26.30
2023-05-24T10:10:43.531Z,25.50
2023-05-24T10:13:12.561Z,25.40
2023-05-24T10:15:40.403Z,25.20
2023-05-24T10:18:11.236Z,24.60
2023-05-24T10:20:41.854Z,23.40
2023-05-24T10:23:12.049Z,22.70
2023-05-24T10:25:45.419Z,22.60
2023-05-24T10:28:15.510Z,22.50
2023-05-24T10:30:49.490Z,23.10
2023-05-24T10:33:19.196Z,23.60
2023-05-24T10:35:47.453Z,23.90
2023-05-24T10:38:16.720Z,24.20
2023-05-24T10:40:44.624Z,24.00
2023-05-24T10:43:12.533Z,23.90
2023-05-24T10:45:41.284Z,24.10
2023-05-24T10:48:33.046Z,23.90
2023-05-24T10:51:02.906Z,23.60
2023-05-24T10:53:40.837Z,23.50
2023-05-24T10:56:10.527Z,23.90
2023-05-24T10:58:58.867Z,24.20
2023-05-24T11:01:28.010Z,24.20
2023-05-24T11:04:10.206Z,24.10
2023-05-24T11:06:47.229Z,24.60
2023-05-24T11:09:17.477Z,24.60
2023-05-24T11:11:47.737Z,24.10
2023-05-24T11:14:19.607Z,23.70
2023-05-24T11:16:50.024Z,23.90
2023-05-24T11:19:19.583Z,24.10
2023-05-24T11:21:48.516Z,23.50
2023-05-24T11:24:19.122Z,23.30
2023-05-24T11:26:47.794Z,23.50
2023-05-24T11:29:17.732Z,23.60
2023-05-24T11:31:49.706Z,23.70
2023-05-24T11:34:18.416Z,23.80
2023-05-24T11:36:47.204Z,24.00
2023-05-24T11:39:15.992Z,23.80
2023-05-24T11:41:45.658Z,23.80
2023-05-24T11:44:17.757Z,23.80
2023-05-24T11:46:45.780Z,23.70
2023-05-24T11:49:14.523Z,23.40
2023-05-24T11:51:42.580Z,23.30
2023-05-24T11:54:11.639Z,23.60
2023-05-24T11:56:39.967Z,23.70
2023-05-24T11:59:16.476Z,23.70
2023-05-24T12:01:45.300Z,23.40
2023-05-24T12:04:13.513Z,23.60
2023-05-24T12:06:42.799Z,23.60
2023-05-24T12:09:13.272Z,23.50
2023-05-24T12:11:42.351Z,23.40
2023-05-24T12:14:15.860Z,23.60
2023-05-24T12:16:44.218Z,23.40
2023-05-24T12:19:31.781Z,23.20
2023-05-24T12:22:01.087Z,23.40
2023-05-24T12:24:29.268Z,23.30
2023-05-24T12:27:01.079Z,23.40
2023-05-24T12:29:35.124Z,23.30
2023-05-24T12:32:03.851Z,23.20
2023-05-24T12:34:31.797Z,23.10
2023-05-24T12:37:00.806Z,22.90
2023-05-24T12:39:31.643Z,22.90
2023-05-24T12:42:01.545Z,23.10
2023-05-24T12:44:32.827Z,23.10
2023-05-24T12:47:02.539Z,23.10
2023-05-24T12:49:30.723Z,22.50
2023-05-24T12:51:58.741Z,22.40
2023-05-24T12:54:27.973Z,22.30
2023-05-24T12:56:57.507Z,22.00
2023-05-24T12:59:27.277Z,22.00
2023-05-24T13:01:56.646Z,22.00
2023-05-24T13:04:26.230Z,21.70
2023-05-24T13:06:54.470Z,21.70
2023-05-24T13:09:23.288Z,21.70
2023-05-24T13:11:52.162Z,21.50
2023-05-24T13:14:20.733Z,21.50
2023-05-24T13:16:49.497Z,21.60
2023-05-24T13:19:18.934Z,21.60
2023-05-24T13:21:46.858Z,21.50
2023-05-24T13:24:17.207Z,21.60
2023-05-24T13:26:45.355Z,21.90
2023-05-24T13:31:45.104Z,21.30
2023-05-24T13:34:13.522Z,21.40
2023-05-24T13:36:43.658Z,21.50
2023-05-24T13:39:16.304Z,21.70
2023-05-24T13:41:45.105Z,22.00
2023-05-24T13:44:13.479Z,22.10
2023-05-24T13:46:41.556Z,22.30
2023-05-24T13:49:10.130Z,22.30
2023-05-24T13:51:38.707Z,22.40
2023-05-24T13:54:08.222Z,22.40
2023-05-24T13:56:36.696Z,22.40
2023-05-24T13:59:05.615Z,22.00
2023-05-24T14:01:35.814Z,22.50
2023-05-24T14:04:04.115Z,22.20
2023-05-24T14:06:32.366Z,21.90
2023-05-24T14:09:00.893Z,21.90
2023-05-24T14:11:31.672Z,22.20
2023-05-24T14:16:30.524Z,22.40
2023-05-24T14:18:58.568Z,22.40
2023-05-24T14:21:27.054Z,22.30
2023-05-24T14:23:55.391Z,22.20
2023-05-24T14:26:23.543Z,22.00
2023-05-24T14:28:55.989Z,21.90
2023-05-24T14:31:24.624Z,21.70
2023-05-24T14:33:52.536Z,21.70
2023-05-24T14:36:20.386Z,21.60
2023-05-24T14:38:48.190Z,21.50
2023-05-24T14:41:16.223Z,21.50
2023-05-24T14:43:44.473Z,21.20
2023-05-24T14:46:13.647Z,21.20
2023-05-24T14:48:41.779Z,21.20
2023-05-24T14:51:09.834Z,21.10
2023-05-24T14:53:37.759Z,20.90
2023-05-24T14:56:07.439Z,20.80
2023-05-24T14:58:35.805Z,20.50
2023-05-24T15:01:03.948Z,20.50
2023-05-24T15:03:33.372Z,20.50
2023-05-24T15:06:01.427Z,20.60
2023-05-24T15:08:29.809Z,20.20
2023-05-24T15:10:58.888Z,20.00
2023-05-24T15:13:27.109Z,20.80
2023-05-24T15:15:56.619Z,20.70
2023-05-24T15:18:27.816Z,20.50
2023-05-24T15:20:57.306Z,20.60
2023-05-24T15:23:25.791Z,20.70
2023-05-24T15:25:53.943Z,20.50
2023-05-24T15:28:23.481Z,20.50
2023-05-24T15:30:53.626Z,20.40
2023-05-24T15:33:22.112Z,20.20
2023-05-24T15:35:49.928Z,20.50
2023-05-24T15:38:19.101Z,20.30
2023-05-24T15:40:47.283Z,19.90
2023-05-24T15:43:16.608Z,19.90
2023-05-24T15:45:45.926Z,19.90
2023-05-24T15:48:14.050Z,19.50
2023-05-24T15:53:12.942Z,19.90
2023-05-24T15:55:42.468Z,19.90
2023-05-24T15:58:13.197Z,19.90
2023-05-24T16:00:41.338Z,19.80
2023-05-24T16:03:09.442Z,19.80
2023-05-24T16:05:37.477Z,18.90
2023-05-24T16:08:05.651Z,19.30
2023-05-24T16:10:33.504Z,19.30
2023-05-24T16:13:02.638Z,19.20
2023-05-24T16:15:31.103Z,19.30
2023-05-24T16:17:58.885Z,19.50
2023-05-24T16:20:26.725Z,19.60
2023-05-24T16:22:54.689Z,19.10
2023-05-24T16:25:22.654Z,19.50
2023-05-24T16:27:50.453Z,19.50
2023-05-24T16:30:19.769Z,19.10
2023-05-24T16:32:47.584Z,18.90
2023-05-24T16:35:15.404Z,19.00
2023-05-24T16:37:43.209Z,19.00
2023-05-24T16:40:12.105Z,19.30
2023-05-24T16:42:40.037Z,19.40
2023-05-24T16:45:08.526Z,19.20
2023-05-24T16:47:37.873Z,19.00
2023-05-24T16:50:06.820Z,18.90
2023-05-24T16:52:34.766Z,19.00
2023-05-24T16:55:02.521Z,18.70
2023-05-24T16:57:30.340Z,18.70
2023-05-24T16:59:58.237Z,18.70
2023-05-24T17:02:26.425Z,18.40
2023-05-24T17:04:55.864Z,18.40
2023-05-24T17:07:23.813Z,18.40
2023-05-24T17:09:52.485Z,18.40
2023-05-24T17:12:21.709Z,18.10
2023-05-24T17:14:49.528Z,18.30
2023-05-24T17:17:17.328Z,17.50
2023-05-24T17:19:45.644Z,17.80
2023-05-24T17:22:14.852Z,17.70
2023-05-24T17:24:42.671Z,17.50
2023-05-24T17:27:10.528Z,17.50
2023-05-24T17:29:38.321Z,17.20
2023-05-24T17:32:06.696Z,17.60
2023-05-24T17:34:34.546Z,17.50
2023-05-24T17:37:02.599Z,17.60
2023-05-24T17:39:31.824Z,17.10
2023-05-24T17:41:59.695Z,17.70
2023-05-24T17:44:27.499Z,17.40
2023-05-24T17:46:57.296Z,17.00
2023-05-24T17:49:25.320Z,17.40
2023-05-24T17:51:53.172Z,17.70
2023-05-24T17:54:22.494Z,17.60
2023-05-24T17:56:51.777Z,17.30
2023-05-24T17:59:19.588Z,16.80
2023-05-24T18:01:48.021Z,17.30
2023-05-24T18:04:16.374Z,16.80
2023-05-24T18:06:45.326Z,17.00
2023-05-24T18:09:13.279Z,17.20
2023-05-24T18:11:41.172Z,17.30
2023-05-24T18:14:10.685Z,16.90
2023-05-24T18:16:38.512Z,17.10
2023-05-24T18:19:06.656Z,17.20
2023-05-24T18:21:34.513Z,17.00
2023-05-24T18:24:02.389Z,17.00
2023-05-24T18:26:30.188Z,16.80
2023-05-24T18:28:57.945Z,17.10
2023-05-24T18:31:27.102Z,16.80
2023-05-24T18:33:55.177Z,17.00
2023-05-24T18:36:23.109Z,16.90
2023-05-24T18:38:50.929Z,16.40
2023-05-24T18:41:18.880Z,16.90
2023-05-24T18:43:46.714Z,16.40
2023-05-24T18:46:14.795Z,16.50
2023-05-24T18:48:44.657Z,16.60
2023-05-24T18:51:12.748Z,16.90
2023-05-24T18:53:41.226Z,16.60
2023-05-24T18:56:09.048Z,16.80
2023-05-24T18:58:36.962Z,16.70
2023-05-24T19:01:07.386Z,16.30
2023-05-24T19:03:35.286Z,16.40
2023-05-24T19:06:04.583Z,15.80
2023-05-24T19:08:32.354Z,16.40
2023-05-24T19:11:00.150Z,16.40
2023-05-24T19:13:28.977Z,16.20
2023-05-24T19:15:57.474Z,16.10
2023-05-24T19:18:25.781Z,16.00
2023-05-24T19:20:53.755Z,16.50
2023-05-24T19:23:22.896Z,16.50
2023-05-24T19:25:50.903Z,16.10
2023-05-24T19:28:18.843Z,16.20
2023-05-24T19:30:46.618Z,16.20
2023-05-24T19:33:14.556Z,16.10
2023-05-24T19:35:42.707Z,15.70
2023-05-24T19:38:11.882Z,16.10
2023-05-24T19:40:41.029Z,16.20
2023-05-24T19:43:08.817Z,15.70
2023-05-24T19:45:36.719Z,16.20
2023-05-24T19:48:04.938Z,16.10
2023-05-24T19:50:32.845Z,16.30
2023-05-24T19:53:00.750Z,15.70
2023-05-24T19:55:28.549Z,16.20
2023-05-24T19:57:57.684Z,15.70
2023-05-24T20:00:25.620Z,16.10
2023-05-24T20:02:53.771Z,16.20
2023-05-24T20:05:22.305Z,16.10
2023-05-24T20:07:50.245Z,16.20
2023-05-24T20:10:18.132Z,15.70
2023-05-24T20:12:46.078Z,16.20
2023-05-24T20:15:18.960Z,15.90
2023-05-24T20:17:46.941Z,15.90
2023-05-24T20:20:14.942Z,16.00
2023-05-24T20:22:42.784Z,15.60
2023-05-24T20:25:10.905Z,15.40
2023-05-24T20:27:39.868Z,15.40
2023-05-24T20:30:09.392Z,15.50
2023-05-24T20:32:38.601Z,15.60
2023-05-24T20:35:07.300Z,15.60
2023-05-24T20:37:35.227Z,15.60
2023-05-24T20:40:03.251Z,15.60
2023-05-24T20:42:31.842Z,15.60
2023-05-24T20:44:59.793Z,15.50
2023-05-24T20:47:30.119Z,15.60
2023-05-24T20:49:59.622Z,15.40
2023-05-24T20:52:27.401Z,15.40
2023-05-24T20:54:55.378Z,15.20
2023-05-24T20:57:23.171Z,15.30
2023-05-24T20:59:51.840Z,14.90
2023-05-24T21:02:19.641Z,15.00
2023-05-24T21:04:47.564Z,15.10
2023-05-24T21:07:16.725Z,14.90
2023-05-24T21:09:44.660Z,14.90
2023-05-24T21:12:12.604Z,14.60
2023-05-24T21:14:40.826Z,15.00
2023-05-24T21:17:08.772Z,14.80
2023-05-24T21:19:36.776Z,14.90
2023-05-24T21:22:04.745Z,14.90
2023-05-24T21:24:33.908Z,15.00
2023-05-24T21:27:01.776Z,14.90
2023-05-24T21:29:29.626Z,14.80
2023-05-24T21:31:57.681Z,15.00
2023-05-24T21:34:25.717Z,14.90
2023-05-24T21:36:53.483Z,14.90
2023-05-24T21:39:21.336Z,14.90
2023-05-24T21:41:50.521Z,14.90
2023-05-24T21:44:18.382Z,14.80
2023-05-24T21:46:46.188Z,14.90
2023-05-24T21:49:15.073Z,15.10
2023-05-24T21:51:42.878Z,14.70
2023-05-24T21:54:10.758Z,14.30
2023-05-24T21:56:38.578Z,14.70
2023-05-24T21:59:07.766Z,14.70
2023-05-24T22:01:36.789Z,15.00
2023-05-24T22:04:04.664Z,14.80
2023-05-24T22:06:32.637Z,14.80
2023-05-24T22:09:01.846Z,14.40
2023-05-24T22:11:30.396Z,14.60
2023-05-24T22:13:58.265Z,14.80
2023-05-24T22:16:27.608Z,14.60
2023-05-24T22:18:56.684Z,14.40
2023-05-24T22:21:24.553Z,14.50
2023-05-24T22:23:52.426Z,14.70
2023-05-24T22:26:20.195Z,14.50
2023-05-24T22:28:52.044Z,14.00
2023-05-24T22:31:21.601Z,14.70
2023-05-24T22:33:51.082Z,14.40
2023-05-24T22:36:18.955Z,14.30
2023-05-24T22:38:46.742Z,14.40
2023-05-24T22:41:14.533Z,14.20
2023-05-24T22:43:42.381Z,13.80
2023-05-24T22:46:10.818Z,13.80
2023-05-24T22:48:40.693Z,14.10
2023-05-24T22:51:12.004Z,14.40
2023-05-24T22:53:39.884Z,14.30
2023-05-24T22:56:10.236Z,14.30
2023-05-24T22:58:38.213Z,14.10
2023-05-24T23:01:06.172Z,14.10
2023-05-24T23:03:34.030Z,14.10
2023-05-24T23:06:04.112Z,14.20
2023-05-24T23:08:34.441Z,14.30
2023-05-24T23:11:10.043Z,14.30
2023-05-24T23:13:38.439Z,14.50
2023-05-24T23:16:06.803Z,14.20
2023-05-24T23:18:37.519Z,14.10
2023-05-24T23:21:05.603Z,14.00
2023-05-24T23:23:34.855Z,14.20
2023-05-24T23:26:02.676Z,14.10
2023-05-24T23:28:30.751Z,14.20
2023-05-24T23:30:58.728Z,14.00
2023-05-24T23:33:26.709Z,14.00
2023-05-24T23:35:54.454Z,14.10
2023-05-24T23:38:22.198Z,14.00
2023-05-24T23:40:51.265Z,14.20
2023-05-24T23:43:19.090Z,14.20
2023-05-24T23:45:46.882Z,13.90
2023-05-24T23:48:14.945Z,14.10
2023-05-24T23:50:53.437Z,14.10
2023-05-24T23:53:22.538Z,13.50
2023-05-24T23:55:51.718Z,14.10
2023-05-24T23:58:19.500Z,13.90
